Time;durP1;ratioP1;P1;durP2;ratioP2;P2;SDS_P1;SDS_P2;PMS_P1;PMS_P2;Temp;Humidity;BMP_temperature;BMP_pressure;BME280_temperature;BME280_humidity;BME280_pressure;Samples;Min_cycle;Max_cycle;Signal;HPM_P1;HPM_P2
2022/06/26 00:02:00;;;;;;;12.32;4.97;;;;;;;22.01;100.00;100733.69;5023882;28;20927;-72
2022/06/26 00:04:27;;;;;;;8.02;3.53;;;;;;;22.05;100.00;100742.75;5028319;28;20908;-73
2022/06/26 00:06:55;;;;;;;15.52;8.65;;;;;;;22.23;100.00;100749.09;5024917;28;20049;-73
2022/06/26 00:09:22;;;;;;;22.92;14.43;;;;;;;22.12;100.00;100762.13;5029030;28;20044;-72
2022/06/26 00:11:48;;;;;;;16.45;7.63;;;;;;;21.95;100.00;100763.75;5020097;28;20049;-72
2022/06/26 00:14:15;;;;;;;26.90;16.45;;;;;;;21.68;100.00;100766.59;5009752;28;20056;-71
2022/06/26 00:16:41;;;;;;;28.38;17.38;;;;;;;21.71;100.00;100776.94;5019133;28;20913;-72
2022/06/26 00:19:08;;;;;;;29.85;19.88;;;;;;;21.76;100.00;100773.50;5015807;28;20679;-72
2022/06/26 00:21:35;;;;;;;29.83;17.77;;;;;;;21.61;100.00;100778.19;5022280;28;20049;-72
2022/06/26 00:24:01;;;;;;;26.42;17.15;;;;;;;21.63;100.00;100779.28;5020204;28;20059;-72
2022/06/26 00:26:28;;;;;;;25.23;17.05;;;;;;;21.57;100.00;100780.38;5019625;28;20053;-71
2022/06/26 00:28:54;;;;;;;22.88;14.77;;;;;;;21.42;100.00;100780.25;5018520;28;20509;-72
2022/06/26 00:31:21;;;;;;;24.20;13.52;;;;;;;21.35;100.00;100799.47;5020751;28;20053;-72
2022/06/26 00:33:47;;;;;;;25.33;14.55;;;;;;;21.27;100.00;100796.19;5025773;28;20078;-75
2022/06/26 00:36:14;;;;;;;19.83;10.43;;;;;;;21.03;100.00;100809.31;5027028;28;20045;-71
2022/06/26 00:38:40;;;;;;;9.10;4.80;;;;;;;21.05;100.00;100820.06;5024456;28;20053;-72
2022/06/26 00:41:07;;;;;;;17.70;10.80;;;;;;;21.04;100.00;100824.94;5021804;28;20866;-72
2022/06/26 00:43:34;;;;;;;19.92;11.70;;;;;;;20.95;100.00;100816.47;5028778;28;20062;-73
2022/06/26 00:46:00;;;;;;;20.33;11.32;;;;;;;20.84;100.00;100810.47;5021212;28;20135;-73
2022/06/26 00:48:27;;;;;;;18.92;10.27;;;;;;;20.77;100.00;100796.72;5016446;28;20059;-72
2022/06/26 00:50:53;;;;;;;21.73;13.13;;;;;;;20.93;100.00;100795.66;5021708;28;20068;-72
2022/06/26 00:53:20;;;;;;;21.13;12.63;;;;;;;21.00;100.00;100784.13;5020526;28;20910;-73
2022/06/26 00:55:47;;;;;;;22.60;11.50;;;;;;;21.04;100.00;100785.53;5024772;28;20603;-72
2022/06/26 00:58:14;;;;;;;17.17;9.60;;;;;;;20.84;100.00;100787.19;5026717;28;20060;-73
2022/06/26 01:00:41;;;;;;;18.27;10.15;;;;;;;20.90;100.00;100777.69;5022090;28;20048;-72
2022/06/26 01:03:09;;;;;;;20.27;11.05;;;;;;;20.98;100.00;100775.38;5022618;28;20046;-72
2022/06/26 01:05:36;;;;;;;19.38;11.23;;;;;;;21.01;100.00;100769.59;5017817;28;20528;-72
2022/06/26 01:08:03;;;;;;;19.58;11.15;;;;;;;21.07;100.00;100761.31;5028062;28;20359;-72
2022/06/26 01:10:30;;;;;;;18.55;11.30;;;;;;;21.13;100.00;100759.44;5028163;28;20059;-73
2022/06/26 01:12:59;;;;;;;18.60;10.90;;;;;;;21.20;100.00;100764.75;5023065;28;20052;-72
2022/06/26 01:15:27;;;;;;;19.65;10.38;;;;;;;21.19;100.00;100775.22;5027730;28;20856;-73
2022/06/26 01:17:55;;;;;;;17.75;9.70;;;;;;;21.03;100.00;100760.69;5023273;28;20053;-72
2022/06/26 01:20:22;;;;;;;18.02;10.52;;;;;;;21.03;100.00;100755.84;5021913;28;20189;-73
2022/06/26 01:23:05;;;;;;;18.45;10.80;;;;;;;21.10;100.00;100764.00;5022673;28;20045;-73
2022/06/26 01:25:46;;;;;;;17.10;8.93;;;;;;;21.05;100.00;100772.25;5018812;28;20053;-73
2022/06/26 01:28:13;;;;;;;15.73;8.93;;;;;;;21.00;100.00;100762.41;5026353;28;20088;-72
2022/06/26 01:30:39;;;;;;;16.77;8.93;;;;;;;20.92;100.00;100754.72;5020011;28;20057;-74
2022/06/26 01:33:08;;;;;;;16.52;9.18;;;;;;;20.91;100.00;100753.13;5025600;28;20373;-71
2022/06/26 01:35:34;;;;;;;16.20;9.68;;;;;;;20.88;100.00;100754.06;5022594;28;20072;-71
2022/06/26 01:38:21;;;;;;;17.00;9.13;;;;;;;20.74;100.00;100757.47;5021968;28;21072;-74
2022/06/26 01:40:51;;;;;;;15.82;8.57;;;;;;;20.75;100.00;100767.50;5021361;28;20060;-73
2022/06/26 01:43:24;;;;;;;17.35;7.55;;;;;;;20.57;100.00;100782.28;5043057;28;20045;-70
2022/06/26 01:45:53;;;;;;;17.13;8.32;;;;;;;20.49;100.00;100783.84;5048336;28;20080;-72
2022/06/26 01:48:21;;;;;;;14.27;7.40;;;;;;;20.29;100.00;100786.25;5042281;28;20119;-72
2022/06/26 01:50:48;;;;;;;14.95;6.60;;;;;;;20.32;100.00;100797.34;5046260;28;20079;-72
2022/06/26 01:53:15;;;;;;;15.70;8.32;;;;;;;20.31;100.00;100792.16;5041086;28;20040;-73
2022/06/26 01:55:42;;;;;;;15.45;8.75;;;;;;;20.26;100.00;100804.78;5037477;28;20127;-72
2022/06/26 01:58:09;;;;;;;9.02;5.07;;;;;;;20.11;100.00;100820.66;5044689;28;20041;-73
2022/06/26 02:00:38;;;;;;;14.07;7.72;;;;;;;20.12;100.00;100821.44;5038305;28;20057;-71
2022/06/26 02:03:05;;;;;;;16.75;8.40;;;;;;;20.19;100.00;100810.69;5043658;28;20049;-72
2022/06/26 02:05:32;;;;;;;15.43;8.55;;;;;;;20.06;100.00;100810.00;5046080;28;20873;-72
2022/06/26 02:07:59;;;;;;;17.52;9.45;;;;;;;20.13;100.00;100812.56;5049697;28;20544;-72
2022/06/26 02:15:59;;;;;;;15.50;7.95;;;;;;;20.06;100.00;100837.28;5045911;28;20156;-72
2022/06/26 02:18:26;;;;;;;17.33;9.38;;;;;;;20.00;100.00;100844.72;5048317;28;20127;-72
2022/06/26 02:20:54;;;;;;;16.42;9.20;;;;;;;20.04;100.00;100836.94;5043321;28;20140;-72
2022/06/26 02:23:21;;;;;;;16.20;9.38;;;;;;;20.04;100.00;100829.31;5049529;28;20051;-71
2022/06/26 02:25:47;;;;;;;15.82;8.95;;;;;;;20.04;100.00;100832.13;5048580;28;20152;-72
2022/06/26 02:28:16;;;;;;;18.30;8.52;;;;;;;19.98;100.00;100833.19;5047234;28;20049;-72
2022/06/26 02:30:43;;;;;;;14.50;8.18;;;;;;;20.00;100.00;100834.28;5049989;28;20498;-72
2022/06/26 02:33:10;;;;;;;16.48;8.70;;;;;;;20.02;100.00;100845.81;5041826;28;20051;-72
2022/06/26 02:35:37;;;;;;;18.50;8.65;;;;;;;19.96;100.00;100850.50;5047054;28;20057;-73
2022/06/26 02:38:03;;;;;;;15.25;8.18;;;;;;;19.96;100.00;100858.13;5048253;28;20055;-72
2022/06/26 02:40:31;;;;;;;15.68;9.25;;;;;;;19.97;100.00;100866.09;5048104;28;20059;-72
2022/06/26 02:42:58;;;;;;;16.23;8.52;;;;;;;19.96;100.00;100867.34;5041936;28;20049;-72
2022/06/26 02:45:24;;;;;;;18.42;9.63;;;;;;;19.81;100.00;100871.91;5048764;28;20135;-74
2022/06/26 02:47:51;;;;;;;17.95;9.15;;;;;;;19.80;100.00;100883.59;5047229;28;20079;-72
2022/06/26 02:50:17;;;;;;;18.25;10.85;;;;;;;19.80;100.00;100884.38;5043436;28;20127;-72
2022/06/26 02:52:45;;;;;;;20.80;10.20;;;;;;;19.82;100.00;100865.06;5046808;28;20103;-72
2022/06/26 02:55:12;;;;;;;18.95;11.00;;;;;;;19.90;100.00;100863.56;5042972;28;20045;-73
2022/06/26 02:57:39;;;;;;;20.75;11.23;;;;;;;19.95;100.00;100853.75;5047022;28;20397;-71
2022/06/26 03:00:07;;;;;;;18.52;10.93;;;;;;;20.01;100.00;100863.13;5039901;28;20059;-72
2022/06/26 03:02:34;;;;;;;20.83;11.05;;;;;;;20.03;100.00;100855.84;5051738;28;20041;-74
2022/06/26 03:05:01;;;;;;;19.38;10.25;;;;;;;20.04;100.00;100860.22;5044710;28;20056;-72
2022/06/26 03:07:27;;;;;;;17.10;9.50;;;;;;;20.00;100.00;100862.38;5043729;28;20422;-72
2022/06/26 03:09:54;;;;;;;21.67;11.98;;;;;;;19.95;100.00;100865.00;5041455;28;20136;-72
2022/06/26 03:12:20;;;;;;;18.35;9.95;;;;;;;19.90;100.00;100871.19;5045759;28;20131;-72
2022/06/26 03:14:47;;;;;;;19.90;11.25;;;;;;;19.80;100.00;100861.91;5033121;28;20128;-72
2022/06/26 03:17:15;;;;;;;19.83;10.23;;;;;;;19.76;100.00;100861.28;5044561;28;20068;-72
2022/06/26 03:19:42;;;;;;;18.92;10.23;;;;;;;19.73;100.00;100856.56;5044521;28;20049;-72
2022/06/26 03:22:09;;;;;;;17.95;9.80;;;;;;;19.70;100.00;100857.47;5045741;28;20468;-72
2022/06/26 03:24:36;;;;;;;18.90;9.52;;;;;;;19.67;100.00;100878.03;5043026;28;20053;-73
2022/06/26 03:27:03;;;;;;;18.75;9.55;;;;;;;19.64;100.00;100867.72;5037718;28;20052;-72
2022/06/26 03:29:29;;;;;;;17.98;9.73;;;;;;;19.63;100.00;100873.78;5048980;28;20139;-72
2022/06/26 03:31:56;;;;;;;20.63;9.57;;;;;;;19.57;100.00;100881.19;5044189;28;20501;-73
2022/06/26 03:34:22;;;;;;;18.13;9.60;;;;;;;19.57;100.00;100879.19;5045056;28;20505;-72
2022/06/26 03:36:49;;;;;;;15.95;8.82;;;;;;;19.56;100.00;100888.84;5048216;28;20084;-73
2022/06/26 03:39:15;;;;;;;18.63;9.88;;;;;;;19.54;100.00;100904.59;5046609;28;20044;-72
2022/06/26 03:41:57;;;;;;;19.15;9.10;;;;;;;19.47;100.00;100916.81;5042730;28;20075;-73
2022/06/26 03:44:28;;;;;;;21.05;9.10;;;;;;;19.51;100.00;100916.72;5045091;28;20094;-72
2022/06/26 03:46:55;;;;;;;17.48;8.20;;;;;;;19.53;100.00;100917.81;5044801;28;20053;-73
2022/06/26 03:49:22;;;;;;;18.25;7.90;;;;;;;19.46;100.00;100920.09;5048206;28;20631;-72
2022/06/26 03:51:49;;;;;;;19.27;7.75;;;;;;;19.41;100.00;100920.66;5045092;28;20532;-72
2022/06/26 03:54:16;;;;;;;14.13;7.68;;;;;;;19.31;100.00;100928.19;5040644;28;20049;-73
2022/06/26 03:56:43;;;;;;;19.63;9.27;;;;;;;19.36;100.00;100933.25;5046554;28;20577;-73
2022/06/26 03:59:09;;;;;;;15.13;7.50;;;;;;;19.34;100.00;100952.53;5049654;28;20048;-72
2022/06/26 04:01:36;;;;;;;17.92;8.57;;;;;;;19.36;100.00;100957.72;5044650;28;20053;-71
2022/06/26 04:04:03;;;;;;;18.65;9.70;;;;;;;19.38;100.00;100952.44;5046663;28;20052;-73
2022/06/26 04:06:29;;;;;;;18.40;9.68;;;;;;;19.36;100.00;100960.50;5038798;28;20077;-72
2022/06/26 04:08:56;;;;;;;18.92;9.57;;;;;;;19.40;100.00;100955.56;5043475;28;20079;-72
2022/06/26 04:11:23;;;;;;;20.92;12.20;;;;;;;19.46;100.00;100932.09;5047410;28;20143;-73
2022/06/26 04:13:49;;;;;;;20.65;11.05;;;;;;;19.48;100.00;100926.81;5042652;28;20059;-72
2022/06/26 04:16:17;;;;;;;20.40;10.48;;;;;;;19.46;100.00;100932.09;5042009;28;20446;-71
2022/06/26 04:18:44;;;;;;;23.55;11.88;;;;;;;19.46;100.00;100931.31;5046554;28;20056;-73
2022/06/26 04:21:10;;;;;;;20.30;11.60;;;;;;;19.52;100.00;100943.53;5043835;28;20045;-71
2022/06/26 04:23:37;;;;;;;20.90;11.60;;;;;;;19.49;100.00;100941.63;5047646;28;20051;-74
2022/06/26 04:26:05;;;;;;;21.55;11.25;;;;;;;19.46;100.00;100942.53;5053282;28;20135;-72
2022/06/26 04:28:32;;;;;;;24.17;13.50;;;;;;;19.51;100.00;100959.59;5045531;28;20087;-72
2022/06/26 04:30:59;;;;;;;28.13;13.95;;;;;;;19.49;100.00;100964.88;5042770;28;20082;-71
2022/06/26 04:33:25;;;;;;;24.88;13.20;;;;;;;19.56;100.00;100964.63;5037959;28;20134;-72
2022/06/26 04:35:52;;;;;;;27.52;14.02;;;;;;;19.60;100.00;100959.69;5039519;28;20083;-73
2022/06/26 04:38:18;;;;;;;23.50;12.65;;;;;;;19.60;100.00;100964.50;5049877;28;20123;-72
2022/06/26 04:40:46;;;;;;;27.75;14.55;;;;;;;19.65;100.00;100961.13;5050672;28;20048;-71
2022/06/26 04:43:12;;;;;;;28.80;15.73;;;;;;;19.72;100.00;100950.47;5042749;28;20053;-71
2022/06/26 04:45:39;;;;;;;29.65;17.65;;;;;;;19.80;100.00;100951.75;5039198;28;20059;-72
2022/06/26 04:48:06;;;;;;;28.33;14.93;;;;;;;19.85;100.00;100958.81;5048723;28;20216;-71
2022/06/26 04:50:32;;;;;;;26.33;14.55;;;;;;;19.94;100.00;100956.09;5046174;28;20140;-71
2022/06/26 04:52:59;;;;;;;26.73;13.73;;;;;;;19.91;100.00;100949.34;5043584;28;20102;-72
2022/06/26 04:55:26;;;;;;;29.15;14.10;;;;;;;19.93;100.00;100946.88;5041462;28;20417;-71
2022/06/26 04:57:52;;;;;;;25.65;12.48;;;;;;;19.84;100.00;100948.81;5039924;28;20077;-72
2022/06/26 05:00:19;;;;;;;22.45;11.82;;;;;;;19.93;100.00;100955.31;5043038;28;20051;-72
2022/06/26 05:02:46;;;;;;;28.17;12.98;;;;;;;19.97;100.00;100947.53;5043831;28;20064;-72
2022/06/26 05:05:12;;;;;;;22.77;11.65;;;;;;;20.10;100.00;100953.09;5045021;28;20049;-73
2022/06/26 05:07:39;;;;;;;23.42;11.82;;;;;;;20.22;100.00;100944.63;5044454;28;20057;-72
2022/06/26 05:10:06;;;;;;;20.80;10.82;;;;;;;20.32;100.00;100959.53;5045506;28;20070;-73
2022/06/26 05:12:33;;;;;;;22.83;11.90;;;;;;;20.43;100.00;100966.31;5043133;28;20135;-73
2022/06/26 05:14:59;;;;;;;22.67;10.65;;;;;;;20.48;100.00;100981.81;5039130;28;20551;-73
2022/06/26 05:17:26;;;;;;;21.63;11.18;;;;;;;20.49;100.00;100968.53;5044481;28;20048;-73
2022/06/26 05:19:52;;;;;;;23.83;14.05;;;;;;;20.46;100.00;100970.25;5041483;28;20057;-73
2022/06/26 05:22:19;;;;;;;21.52;13.38;;;;;;;20.36;100.00;100968.63;5042026;28;20470;-76
2022/06/26 05:24:46;;;;;;;24.98;13.73;;;;;;;20.42;100.00;100985.69;5037872;28;20054;-73
2022/06/26 05:27:13;;;;;;;24.63;14.25;;;;;;;20.35;100.00;100992.31;5040376;28;20128;-73
2022/06/26 05:29:42;;;;;;;22.13;13.38;;;;;;;20.19;100.00;100976.44;5053022;28;20056;-73
2022/06/26 05:32:08;;;;;;;21.42;12.50;;;;;;;20.23;100.00;100984.75;5043278;28;20049;-74
2022/06/26 05:34:35;;;;;;;20.35;12.02;;;;;;;20.17;100.00;100995.00;5044957;28;20132;-74
2022/06/26 05:37:01;;;;;;;8.18;3.92;;;;;;;20.06;100.00;100995.38;5042938;28;20124;-73
2022/06/26 05:39:28;;;;;;;19.90;12.15;;;;;;;20.15;100.00;100995.47;5048376;28;20127;-73
2022/06/26 05:41:54;;;;;;;20.42;10.70;;;;;;;20.13;100.00;101009.19;5044357;28;20135;-73
2022/06/26 05:44:27;;;;;;;20.80;11.30;;;;;;;20.20;100.00;101008.94;5050015;28;20064;-73
2022/06/26 05:46:53;;;;;;;16.77;8.43;;;;;;;20.12;100.00;101010.41;5051848;28;20056;-73
2022/06/26 05:49:20;;;;;;;17.90;9.85;;;;;;;20.23;100.00;100999.59;5044125;28;20048;-73
2022/06/26 05:51:47;;;;;;;18.45;9.35;;;;;;;20.19;100.00;101017.81;5045397;28;20084;-73
2022/06/26 05:54:13;;;;;;;16.00;9.18;;;;;;;20.25;100.00;101013.19;5049040;28;20041;-72
2022/06/26 05:56:40;;;;;;;10.63;5.22;;;;;;;20.04;100.00;101011.88;5047768;28;20103;-74
2022/06/26 05:59:06;;;;;;;18.17;9.55;;;;;;;20.15;100.00;101017.94;5049922;28;20401;-73
2022/06/26 06:01:33;;;;;;;18.95;9.63;;;;;;;20.15;100.00;101017.94;5050726;28;20056;-72
2022/06/26 06:03:59;;;;;;;16.52;10.02;;;;;;;20.06;100.00;101029.09;5053391;28;20060;-73
2022/06/26 06:06:26;;;;;;;22.30;13.55;;;;;;;20.21;100.00;101027.34;5050471;28;20048;-74
2022/06/26 06:08:52;;;;;;;18.17;9.98;;;;;;;20.16;100.00;101027.16;5046780;28;20045;-74
2022/06/26 06:11:19;;;;;;;8.70;4.72;;;;;;;20.10;100.00;101026.94;5043538;28;20069;-73
2022/06/26 06:13:46;;;;;;;23.08;12.95;;;;;;;20.09;100.00;101036.56;5043824;28;20327;-74
2022/06/26 06:16:12;;;;;;;30.38;17.35;;;;;;;20.26;100.00;101051.28;5051279;28;20766;-73
2022/06/26 06:18:39;;;;;;;27.05;18.70;;;;;;;20.26;100.00;101051.28;5054357;28;20078;-74
2022/06/26 06:21:10;;;;;;;24.67;15.32;;;;;;;20.29;100.00;101056.00;5048578;28;20057;-74
2022/06/26 06:23:38;;;;;;;27.90;16.75;;;;;;;20.46;100.00;101059.41;5050560;28;20186;-74
2022/06/26 06:26:05;;;;;;;26.83;17.13;;;;;;;20.50;100.00;101057.25;5046327;28;20140;-74
2022/06/26 06:28:31;;;;;;;24.80;15.23;;;;;;;20.56;100.00;101055.41;5049345;28;20063;-73
2022/06/26 06:30:58;;;;;;;25.50;15.40;;;;;;;20.69;100.00;101058.97;5043759;28;20500;-73
2022/06/26 06:33:24;;;;;;;25.05;15.77;;;;;;;20.67;100.00;101064.25;5042275;28;20040;-73
2022/06/26 06:35:54;;;;;;;20.42;13.65;;;;;;;20.70;100.00;101063.31;5041928;28;20049;-75
2022/06/26 06:38:22;;;;;;;23.33;14.98;;;;;;;20.77;100.00;101060.25;5049055;28;20049;-74
2022/06/26 06:40:49;;;;;;;24.67;14.80;;;;;;;20.87;100.00;101070.31;5039923;28;20077;-68
2022/06/26 06:43:16;;;;;;;24.80;13.18;;;;;;;20.83;100.00;101072.47;5046139;28;20052;-70
2022/06/26 06:45:42;;;;;;;22.48;14.20;;;;;;;20.68;100.00;101091.13;5043727;28;20085;-72
2022/06/26 06:48:09;;;;;;;21.85;13.02;;;;;;;20.61;100.00;101086.53;5045343;28;20158;-71
2022/06/26 06:50:36;;;;;;;22.75;12.90;;;;;;;20.62;100.00;101087.34;5042906;28;20057;-71
2022/06/26 06:53:04;;;;;;;23.73;12.40;;;;;;;20.85;100.00;101095.31;5042850;28;20056;-73
2022/06/26 06:55:30;;;;;;;19.77;12.23;;;;;;;21.00;100.00;101099.97;5040113;28;20126;-73
2022/06/26 06:57:57;;;;;;;21.48;11.52;;;;;;;21.13;100.00;101091.47;5046246;28;20053;-72
2022/06/26 07:00:24;;;;;;;19.75;10.90;;;;;;;21.23;100.00;101099.47;5036416;28;20136;-72
2022/06/26 07:02:50;;;;;;;18.77;9.77;;;;;;;21.17;100.00;101100.53;5045806;28;20049;-73
2022/06/26 07:05:19;;;;;;;17.02;9.55;;;;;;;21.21;100.00;101098.38;5042712;28;20518;-72
2022/06/26 07:07:46;;;;;;;13.00;5.18;;;;;;;20.99;100.00;101109.66;5041077;28;20103;-71
2022/06/26 07:10:12;;;;;;;7.28;3.53;;;;;;;20.67;100.00;101126.91;5045916;28;20044;-72
2022/06/26 07:12:39;;;;;;;18.27;9.82;;;;;;;20.60;100.00;101120.72;5045261;28;20132;-73
2022/06/26 07:15:06;;;;;;;17.38;9.95;;;;;;;20.64;100.00;101127.81;5047823;28;20160;-72
2022/06/26 07:17:33;;;;;;;15.52;8.50;;;;;;;20.60;100.00;101126.34;5048833;28;20053;-72
2022/06/26 07:20:00;;;;;;;20.40;11.38;;;;;;;20.79;100.00;101131.66;5046298;28;20132;-73
2022/06/26 07:22:27;;;;;;;19.90;11.15;;;;;;;20.97;100.00;101140.28;5046158;28;20059;-73
2022/06/26 07:24:53;;;;;;;12.52;6.10;;;;;;;20.93;100.00;101145.25;5044266;28;20160;-73
2022/06/26 07:27:20;;;;;;;17.75;10.15;;;;;;;20.92;100.00;101148.50;5042499;28;20187;-72
2022/06/26 07:29:46;;;;;;;14.52;6.43;;;;;;;20.94;100.00;101148.84;5045580;28;20128;-74
2022/06/26 07:32:13;;;;;;;23.17;16.92;;;;;;;21.24;100.00;101148.09;5043634;28;20049;-72
2022/06/26 07:34:39;;;;;;;22.13;14.52;;;;;;;21.36;100.00;101150.84;5035383;28;20060;-73
2022/06/26 07:37:06;;;;;;;24.65;14.82;;;;;;;21.36;100.00;101155.69;5044152;28;20112;-72
2022/06/26 07:39:33;;;;;;;23.58;12.52;;;;;;;21.13;100.00;101139.28;5044614;28;20052;-73
2022/06/26 07:41:59;;;;;;;23.33;18.40;;;;;;;21.25;100.00;101144.03;5042312;28;20111;-72
2022/06/26 07:44:26;;;;;;;11.18;6.97;;;;;;;20.85;100.00;101149.53;5046248;28;20059;-70
2022/06/26 07:46:52;;;;;;;21.58;14.32;;;;;;;20.91;100.00;101152.53;5043255;28;20585;-71
2022/06/26 07:49:19;;;;;;;22.45;14.63;;;;;;;20.98;100.00;101153.09;5051865;28;20059;-71
2022/06/26 07:51:45;;;;;;;14.88;8.75;;;;;;;20.96;98.71;101157.63;5043307;28;20048;-73
2022/06/26 07:54:12;;;;;;;10.48;5.60;;;;;;;20.97;98.61;101159.19;5046027;28;20059;-73
2022/06/26 07:56:39;;;;;;;17.40;10.10;;;;;;;21.38;100.00;101158.81;5045912;28;20440;-74
2022/06/26 07:59:05;;;;;;;17.95;8.63;;;;;;;21.65;97.73;101154.13;5041365;28;20045;-73
2022/06/26 08:01:32;;;;;;;13.90;6.72;;;;;;;21.85;95.18;101159.41;5044660;28;20054;-73
2022/06/26 08:03:59;;;;;;;12.75;6.82;;;;;;;22.04;92.34;101161.03;5042495;28;20048;-73
2022/06/26 08:06:26;;;;;;;13.55;5.78;;;;;;;22.12;89.05;101159.47;5043382;28;20055;-74
2022/06/26 08:08:52;;;;;;;11.45;4.70;;;;;;;21.76;85.69;101168.59;5041784;28;20134;-73
2022/06/26 08:11:20;;;;;;;7.28;3.28;;;;;;;21.76;79.27;101190.31;5043279;28;20045;-72
2022/06/26 08:13:46;;;;;;;7.72;2.40;;;;;;;21.72;79.63;101190.47;5037834;28;21018;-73
2022/06/26 08:16:13;;;;;;;6.28;2.60;;;;;;;21.54;81.54;101181.13;5042118;28;20055;-73
2022/06/26 08:18:41;;;;;;;6.82;3.53;;;;;;;21.64;82.42;101172.28;5043462;28;20079;-73
2022/06/26 08:23:53;;;;;;;4.15;2.58;;;;;;;21.76;80.67;101181.88;5045502;28;20512;-73
2022/06/26 08:26:20;;;;;;;5.80;2.88;;;;;;;21.96;81.56;101182.28;5053540;28;20441;-74
2022/06/26 08:28:47;;;;;;;6.88;3.22;;;;;;;21.95;79.05;101172.25;5042691;28;20069;-74
2022/06/26 08:31:14;;;;;;;5.90;3.10;;;;;;;22.24;77.64;101179.06;5036875;28;20304;-74
2022/06/26 08:33:41;;;;;;;5.80;3.40;;;;;;;22.43;78.48;101180.69;5039223;28;20056;-75
2022/06/26 08:36:07;;;;;;;10.90;3.53;;;;;;;22.40;76.54;101195.72;5048994;28;20055;-73
2022/06/26 08:38:34;;;;;;;10.50;3.88;;;;;;;22.49;75.35;101190.13;5046713;28;20053;-74
2022/06/26 08:41:02;;;;;;;4.88;3.38;;;;;;;22.48;76.48;101199.03;5040259;28;20045;-74
2022/06/26 08:43:28;;;;;;;9.52;4.22;;;;;;;22.40;76.31;101195.72;5040913;28;20056;-74
2022/06/26 08:46:01;;;;;;;9.63;5.28;;;;;;;22.58;74.66;101198.59;5041436;28;20454;-70
2022/06/26 08:48:35;;;;;;;12.10;6.28;;;;;;;22.51;74.21;101195.31;5042385;28;20049;-74
2022/06/26 08:51:03;;;;;;;16.20;8.82;;;;;;;22.73;76.65;101199.56;5041762;28;20160;-73
2022/06/26 08:53:30;;;;;;;12.38;6.60;;;;;;;22.41;75.85;101208.56;5041947;28;20413;-72
2022/06/26 08:55:57;;;;;;;6.30;3.47;;;;;;;22.17;76.77;101215.25;5040015;28;20076;-71
2022/06/26 08:58:24;;;;;;;11.70;6.72;;;;;;;22.11;77.94;101200.97;5047422;28;20210;-72
2022/06/26 09:00:51;;;;;;;13.27;6.47;;;;;;;22.27;77.62;101208.38;5049368;28;20041;-71
2022/06/26 09:03:18;;;;;;;8.13;4.07;;;;;;;22.42;76.41;101212.97;5047941;28;20045;-72
2022/06/26 09:05:44;;;;;;;14.40;7.45;;;;;;;22.53;74.66;101210.50;5043372;28;20519;-75
2022/06/26 09:08:21;;;;;;;12.93;7.00;;;;;;;22.53;74.70;101213.31;5045123;28;20076;-74
2022/06/26 09:10:49;;;;;;;13.73;7.05;;;;;;;22.69;75.50;101206.63;5048197;28;20052;-76
2022/06/26 09:13:16;;;;;;;12.35;5.70;;;;;;;22.53;74.58;101206.91;5037344;28;20087;-74
2022/06/26 09:15:43;;;;;;;10.10;4.22;;;;;;;22.60;73.49;101201.75;5049838;28;20114;-76
2022/06/26 09:18:12;;;;;;;14.85;8.32;;;;;;;22.76;74.55;101211.94;5060357;28;20051;-74
2022/06/26 09:20:59;;;;;;;11.50;5.35;;;;;;;22.67;71.86;101209.91;5052926;28;20068;-74
2022/06/26 09:23:26;;;;;;;4.65;2.92;;;;;;;22.50;71.37;101216.28;5055351;28;20052;-74
2022/06/26 09:25:55;;;;;;;8.35;4.60;;;;;;;22.66;72.54;101213.97;5053986;28;20056;-74
2022/06/26 09:28:22;;;;;;;9.75;4.85;;;;;;;22.75;73.84;101221.66;5051819;28;20782;-72
2022/06/26 09:30:53;;;;;;;13.10;6.60;;;;;;;22.80;72.40;101212.56;5047428;28;20049;-71
2022/06/26 09:33:39;;;;;;;13.07;7.07;;;;;;;22.86;72.85;101218.38;5047604;28;20049;-73
2022/06/26 09:36:13;;;;;;;11.55;6.57;;;;;;;22.89;72.57;101214.59;5071537;28;20041;-71
2022/06/26 09:38:51;;;;;;;11.48;6.65;;;;;;;23.16;72.93;101211.78;5043614;28;20067;-71
2022/06/26 09:41:29;;;;;;;8.80;5.15;;;;;;;22.89;68.86;101215.41;5057115;28;20071;-73
2022/06/26 09:43:57;;;;;;;10.35;4.95;;;;;;;23.14;70.92;101192.50;5046063;28;20056;-72
2022/06/26 09:46:32;;;;;;;8.40;3.78;;;;;;;23.21;68.82;101189.34;5059123;28;20183;-71
2022/06/26 09:49:00;;;;;;;9.93;3.97;;;;;;;23.19;69.59;101186.22;5047995;28;20707;-72
2022/06/26 09:51:27;;;;;;;11.55;5.50;;;;;;;23.29;70.04;101196.28;5035060;28;20145;-73
2022/06/26 09:53:53;;;;;;;6.35;3.20;;;;;;;23.24;69.69;101202.56;5047384;28;20074;-70
2022/06/26 09:56:20;;;;;;;8.50;4.50;;;;;;;23.31;69.39;101207.88;5050242;28;20044;-75
2022/06/26 09:58:48;;;;;;;10.95;5.15;;;;;;;23.31;70.22;101205.03;5050373;28;20047;-74
2022/06/26 10:06:47;;;;;;;7.10;4.15;;;;;;;23.53;67.54;101216.94;5046666;28;20671;-74
2022/06/26 10:09:16;;;;;;;9.38;4.78;;;;;;;23.62;66.56;101213.31;5041505;28;20057;-74
2022/06/26 10:11:45;;;;;;;8.88;4.07;;;;;;;23.73;67.71;101228.50;5049218;28;20144;-74
2022/06/26 10:14:23;;;;;;;7.90;3.97;;;;;;;23.63;65.37;101224.13;5048995;28;20049;-73
2022/06/26 10:16:59;;;;;;;7.20;3.58;;;;;;;23.85;66.13;101221.84;5047881;28;20370;-74
2022/06/26 10:19:34;;;;;;;3.72;2.22;;;;;;;23.46;64.92;101230.59;5050756;28;20131;-74
2022/06/26 10:22:01;;;;;;;9.68;3.22;;;;;;;23.37;63.39;101231.41;5040646;28;20083;-74
2022/06/26 10:24:27;;;;;;;5.97;2.80;;;;;;;23.48;62.93;101234.50;5048814;28;20725;-75
2022/06/26 10:26:59;;;;;;;9.10;3.55;;;;;;;23.68;64.59;101226.31;5047810;28;20088;-74
2022/06/26 10:30:03;;;;;;;8.00;3.58;;;;;;;23.75;62.37;101223.13;5044597;28;20057;-75
2022/06/26 10:32:29;;;;;;;5.97;3.65;;;;;;;23.93;63.66;101225.94;5051321;28;20143;-74
2022/06/26 10:34:56;;;;;;;7.78;3.38;;;;;;;23.80;62.49;101222.50;5050710;28;20051;-74
2022/06/26 10:37:23;;;;;;;7.03;3.63;;;;;;;23.48;63.47;101220.38;5044468;28;20049;-76
2022/06/26 10:39:52;;;;;;;6.15;4.00;;;;;;;23.43;63.47;101221.03;5048483;28;20148;-71
2022/06/26 10:45:28;;;;;;;8.63;4.65;;;;;;;23.25;63.00;101240.03;5037281;28;20091;-74
2022/06/26 10:48:05;;;;;;;8.40;4.18;;;;;;;23.33;63.52;101246.94;5047736;28;20098;-73
2022/06/26 10:50:38;;;;;;;9.13;3.83;;;;;;;23.32;65.15;101243.31;5043057;28;20052;-74
2022/06/26 10:53:23;;;;;;;8.70;3.75;;;;;;;23.27;65.56;101243.97;5040025;28;20049;-74
2022/06/26 10:55:49;;;;;;;9.03;3.73;;;;;;;23.15;64.28;101241.28;5047091;28;20048;-73
2022/06/26 10:58:20;;;;;;;8.50;3.90;;;;;;;23.14;64.46;101232.00;5038993;28;20176;-74
2022/06/26 11:00:47;;;;;;;7.30;3.95;;;;;;;23.08;65.55;101238.75;5043228;28;20127;-74
2022/06/26 11:03:17;;;;;;;7.97;4.15;;;;;;;23.15;65.57;101244.84;5045504;28;20148;-73
2022/06/26 11:06:02;;;;;;;9.57;4.28;;;;;;;23.13;65.73;101249.41;5052425;28;20130;-74
2022/06/26 11:08:47;;;;;;;;;;;;;;;23.15;65.49;101247.69;5050099;28;20059;-74
2022/06/26 11:11:25;;;;;;;9.45;4.50;;;;;;;23.14;65.18;101253.78;5049412;28;19921;-73
2022/06/26 11:13:55;;;;;;;8.68;4.85;;;;;;;22.97;65.34;101250.50;5049751;28;20083;-74
2022/06/26 11:16:38;;;;;;;10.52;4.63;;;;;;;23.14;65.87;101242.50;5044989;28;20486;-74
2022/06/26 11:19:07;;;;;;;4.88;2.72;;;;;;;23.15;65.28;101239.22;5046685;28;20059;-76
2022/06/26 11:21:34;;;;;;;8.38;4.18;;;;;;;23.31;66.05;101230.47;5042430;28;20586;-72
2022/06/26 11:24:01;;;;;;;8.27;4.35;;;;;;;23.31;64.57;101229.66;5052471;28;20569;-73
2022/06/26 11:26:28;;;;;;;11.75;4.68;;;;;;;23.28;65.21;101239.88;5048058;28;20091;-73
2022/06/26 11:28:56;;;;;;;8.32;4.32;;;;;;;23.42;65.40;101238.47;5046219;28;20057;-72
2022/06/26 11:31:32;;;;;;;9.77;4.35;;;;;;;23.43;64.56;101242.84;5047274;28;20143;-73